sensor_id;sensor_type;location;lat;lon;timestamp;P1;durP1;ratioP1;P2;durP2;ratioP2
45366;SDS011;31100;55.848;37.636;2023-05-27T00:00:02;11.65;;;9.15;;
45366;SDS011;31100;55.848;37.636;2023-05-27T00:02:29;15.25;;;10.05;;
45366;SDS011;31100;55.848;37.636;2023-05-27T00:04:55;14.02;;;9.70;;
45366;SDS011;31100;55.848;37.636;2023-05-27T00:07:20;11.95;;;9.65;;
45366;SDS011;31100;55.848;37.636;2023-05-27T00:09:46;11.27;;;9.35;;
45366;SDS011;31100;55.848;37.636;2023-05-27T00:12:11;11.90;;;9.93;;
45366;SDS011;31100;55.848;37.636;2023-05-27T00:14:37;12.25;;;9.43;;
45366;SDS011;31100;55.848;37.636;2023-05-27T00:17:02;13.48;;;8.82;;
45366;SDS011;31100;55.848;37.636;2023-05-27T00:19:28;9.38;;;8.20;;
45366;SDS011;31100;55.848;37.636;2023-05-27T00:21:54;12.50;;;9.13;;
45366;SDS011;31100;55.848;37.636;2023-05-27T00:24:20;13.25;;;9.10;;
45366;SDS011;31100;55.848;37.636;2023-05-27T00:26:46;12.65;;;8.85;;
45366;SDS011;31100;55.848;37.636;2023-05-27T00:29:12;11.85;;;8.77;;
45366;SDS011;31100;55.848;37.636;2023-05-27T00:31:38;11.77;;;8.68;;
45366;SDS011;31100;55.848;37.636;2023-05-27T00:34:03;10.80;;;9.60;;
45366;SDS011;31100;55.848;37.636;2023-05-27T00:36:29;11.20;;;9.68;;
45366;SDS011;31100;55.848;37.636;2023-05-27T00:38:56;11.30;;;9.88;;
45366;SDS011;31100;55.848;37.636;2023-05-27T00:41:22;14.23;;;9.90;;
45366;SDS011;31100;55.848;37.636;2023-05-27T00:43:48;12.75;;;9.95;;
45366;SDS011;31100;55.848;37.636;2023-05-27T00:46:14;11.35;;;9.38;;
45366;SDS011;31100;55.848;37.636;2023-05-27T00:48:40;11.10;;;9.43;;
45366;SDS011;31100;55.848;37.636;2023-05-27T00:51:05;13.40;;;9.93;;
45366;SDS011;31100;55.848;37.636;2023-05-27T00:53:33;14.57;;;9.98;;
45366;SDS011;31100;55.848;37.636;2023-05-27T00:56:05;11.07;;;9.82;;
45366;SDS011;31100;55.848;37.636;2023-05-27T00:58:31;11.18;;;9.93;;
45366;SDS011;31100;55.848;37.636;2023-05-27T01:00:57;12.73;;;10.32;;
45366;SDS011;31100;55.848;37.636;2023-05-27T01:03:23;13.00;;;9.93;;
45366;SDS011;31100;55.848;37.636;2023-05-27T01:05:50;12.43;;;9.80;;
45366;SDS011;31100;55.848;37.636;2023-05-27T01:10:50;12.35;;;10.18;;
45366;SDS011;31100;55.848;37.636;2023-05-27T01:16:02;11.50;;;10.27;;
45366;SDS011;31100;55.848;37.636;2023-05-27T01:18:30;10.63;;;9.52;;
45366;SDS011;31100;55.848;37.636;2023-05-27T01:20:59;12.23;;;9.82;;
45366;SDS011;31100;55.848;37.636;2023-05-27T01:23:28;11.55;;;10.00;;
45366;SDS011;31100;55.848;37.636;2023-05-27T01:25:54;12.05;;;10.63;;
45366;SDS011;31100;55.848;37.636;2023-05-27T01:28:19;11.80;;;9.85;;
45366;SDS011;31100;55.848;37.636;2023-05-27T01:30:45;10.88;;;9.32;;
45366;SDS011;31100;55.848;37.636;2023-05-27T01:33:15;11.27;;;9.30;;
45366;SDS011;31100;55.848;37.636;2023-05-27T01:38:12;10.38;;;8.90;;
45366;SDS011;31100;55.848;37.636;2023-05-27T01:40:39;12.43;;;8.90;;
45366;SDS011;31100;55.848;37.636;2023-05-27T01:43:06;10.82;;;8.93;;
45366;SDS011;31100;55.848;37.636;2023-05-27T01:45:32;13.02;;;9.05;;
45366;SDS011;31100;55.848;37.636;2023-05-27T01:47:59;9.40;;;8.23;;
45366;SDS011;31100;55.848;37.636;2023-05-27T01:50:25;10.57;;;8.77;;
45366;SDS011;31100;55.848;37.636;2023-05-27T01:52:50;11.95;;;8.98;;
45366;SDS011;31100;55.848;37.636;2023-05-27T01:55:16;10.40;;;9.00;;
45366;SDS011;31100;55.848;37.636;2023-05-27T01:57:42;13.23;;;9.07;;
45366;SDS011;31100;55.848;37.636;2023-05-27T02:00:08;11.15;;;8.77;;
45366;SDS011;31100;55.848;37.636;2023-05-27T02:02:34;9.57;;;8.38;;
45366;SDS011;31100;55.848;37.636;2023-05-27T02:05:00;10.07;;;8.90;;
45366;SDS011;31100;55.848;37.636;2023-05-27T02:07:25;12.32;;;8.93;;
45366;SDS011;31100;55.848;37.636;2023-05-27T02:09:53;10.50;;;8.68;;
45366;SDS011;31100;55.848;37.636;2023-05-27T02:12:18;11.32;;;8.75;;
45366;SDS011;31100;55.848;37.636;2023-05-27T02:14:44;9.57;;;8.25;;
45366;SDS011;31100;55.848;37.636;2023-05-27T02:17:10;11.13;;;8.32;;
45366;SDS011;31100;55.848;37.636;2023-05-27T02:19:36;12.00;;;7.78;;
45366;SDS011;31100;55.848;37.636;2023-05-27T02:22:02;9.75;;;7.75;;
45366;SDS011;31100;55.848;37.636;2023-05-27T02:24:27;8.38;;;7.15;;
45366;SDS011;31100;55.848;37.636;2023-05-27T02:26:53;8.43;;;7.40;;
45366;SDS011;31100;55.848;37.636;2023-05-27T02:29:18;10.38;;;6.80;;
45366;SDS011;31100;55.848;37.636;2023-05-27T02:31:44;9.65;;;7.15;;
45366;SDS011;31100;55.848;37.636;2023-05-27T02:34:09;9.82;;;7.28;;
45366;SDS011;31100;55.848;37.636;2023-05-27T02:36:35;9.70;;;6.80;;
45366;SDS011;31100;55.848;37.636;2023-05-27T02:39:01;7.80;;;6.88;;
45366;SDS011;31100;55.848;37.636;2023-05-27T02:41:27;8.93;;;7.32;;
45366;SDS011;31100;55.848;37.636;2023-05-27T02:43:53;9.32;;;6.78;;
45366;SDS011;31100;55.848;37.636;2023-05-27T02:46:19;10.23;;;6.85;;
45366;SDS011;31100;55.848;37.636;2023-05-27T02:48:44;9.43;;;6.53;;
45366;SDS011;31100;55.848;37.636;2023-05-27T02:51:11;8.18;;;6.57;;
45366;SDS011;31100;55.848;37.636;2023-05-27T02:53:36;6.80;;;6.00;;
45366;SDS011;31100;55.848;37.636;2023-05-27T02:56:01;7.47;;;5.70;;
45366;SDS011;31100;55.848;37.636;2023-05-27T02:58:27;6.22;;;5.20;;
45366;SDS011;31100;55.848;37.636;2023-05-27T03:00:52;9.73;;;5.55;;
45366;SDS011;31100;55.848;37.636;2023-05-27T03:03:18;5.93;;;4.97;;
45366;SDS011;31100;55.848;37.636;2023-05-27T03:05:43;6.53;;;5.50;;
45366;SDS011;31100;55.848;37.636;2023-05-27T03:08:09;6.80;;;5.25;;
45366;SDS011;31100;55.848;37.636;2023-05-27T03:10:34;6.35;;;5.18;;
45366;SDS011;31100;55.848;37.636;2023-05-27T03:13:00;9.45;;;5.45;;
45366;SDS011;31100;55.848;37.636;2023-05-27T03:15:26;7.68;;;5.22;;
45366;SDS011;31100;55.848;37.636;2023-05-27T03:17:54;9.48;;;5.13;;
45366;SDS011;31100;55.848;37.636;2023-05-27T03:20:20;7.70;;;5.32;;
45366;SDS011;31100;55.848;37.636;2023-05-27T03:22:46;7.28;;;5.03;;
45366;SDS011;31100;55.848;37.636;2023-05-27T03:25:12;5.93;;;4.80;;
45366;SDS011;31100;55.848;37.636;2023-05-27T03:27:38;7.07;;;4.85;;
45366;SDS011;31100;55.848;37.636;2023-05-27T03:30:04;7.55;;;4.55;;
45366;SDS011;31100;55.848;37.636;2023-05-27T03:32:30;6.72;;;4.50;;
45366;SDS011;31100;55.848;37.636;2023-05-27T03:34:56;8.07;;;5.00;;
45366;SDS011;31100;55.848;37.636;2023-05-27T03:37:21;6.20;;;4.57;;
45366;SDS011;31100;55.848;37.636;2023-05-27T03:39:47;6.03;;;4.85;;
45366;SDS011;31100;55.848;37.636;2023-05-27T03:42:12;6.03;;;4.80;;
45366;SDS011;31100;55.848;37.636;2023-05-27T03:44:39;5.68;;;4.57;;
45366;SDS011;31100;55.848;37.636;2023-05-27T03:47:05;8.75;;;4.40;;
45366;SDS011;31100;55.848;37.636;2023-05-27T03:49:31;5.60;;;4.55;;
45366;SDS011;31100;55.848;37.636;2023-05-27T03:51:56;8.05;;;4.25;;
45366;SDS011;31100;55.848;37.636;2023-05-27T03:54:22;5.35;;;4.05;;
45366;SDS011;31100;55.848;37.636;2023-05-27T03:56:47;7.80;;;4.30;;
45366;SDS011;31100;55.848;37.636;2023-05-27T03:59:13;8.55;;;4.47;;
45366;SDS011;31100;55.848;37.636;2023-05-27T04:01:39;6.03;;;3.88;;
45366;SDS011;31100;55.848;37.636;2023-05-27T04:04:06;6.35;;;3.83;;
45366;SDS011;31100;55.848;37.636;2023-05-27T04:06:31;5.63;;;3.90;;
45366;SDS011;31100;55.848;37.636;2023-05-27T04:08:58;5.97;;;4.15;;
45366;SDS011;31100;55.848;37.636;2023-05-27T04:11:26;6.63;;;3.70;;
45366;SDS011;31100;55.848;37.636;2023-05-27T04:13:52;6.45;;;4.07;;
45366;SDS011;31100;55.848;37.636;2023-05-27T04:16:17;5.95;;;3.63;;
45366;SDS011;31100;55.848;37.636;2023-05-27T04:18:43;6.15;;;3.63;;
45366;SDS011;31100;55.848;37.636;2023-05-27T04:21:13;5.25;;;3.42;;
45366;SDS011;31100;55.848;37.636;2023-05-27T04:23:48;8.10;;;3.42;;
45366;SDS011;31100;55.848;37.636;2023-05-27T04:26:15;6.65;;;3.70;;
45366;SDS011;31100;55.848;37.636;2023-05-27T04:28:41;5.82;;;3.30;;
45366;SDS011;31100;55.848;37.636;2023-05-27T04:31:10;4.80;;;3.00;;
45366;SDS011;31100;55.848;37.636;2023-05-27T04:33:40;5.38;;;2.92;;
45366;SDS011;31100;55.848;37.636;2023-05-27T04:36:06;5.50;;;3.53;;
45366;SDS011;31100;55.848;37.636;2023-05-27T04:38:32;6.80;;;3.50;;
45366;SDS011;31100;55.848;37.636;2023-05-27T04:40:58;5.75;;;2.90;;
45366;SDS011;31100;55.848;37.636;2023-05-27T04:43:24;7.15;;;3.17;;
45366;SDS011;31100;55.848;37.636;2023-05-27T04:45:52;5.00;;;2.70;;
45366;SDS011;31100;55.848;37.636;2023-05-27T04:48:18;6.05;;;2.80;;
45366;SDS011;31100;55.848;37.636;2023-05-27T04:50:45;5.97;;;2.72;;
45366;SDS011;31100;55.848;37.636;2023-05-27T04:53:10;5.15;;;2.90;;
45366;SDS011;31100;55.848;37.636;2023-05-27T04:55:36;4.72;;;2.80;;
45366;SDS011;31100;55.848;37.636;2023-05-27T04:58:04;3.63;;;2.42;;
45366;SDS011;31100;55.848;37.636;2023-05-27T05:00:30;5.43;;;2.65;;
45366;SDS011;31100;55.848;37.636;2023-05-27T05:03:15;4.47;;;2.70;;
45366;SDS011;31100;55.848;37.636;2023-05-27T05:05:47;5.70;;;2.65;;
45366;SDS011;31100;55.848;37.636;2023-05-27T05:08:19;5.70;;;3.53;;
45366;SDS011;31100;55.848;37.636;2023-05-27T05:10:48;9.80;;;3.00;;
45366;SDS011;31100;55.848;37.636;2023-05-27T05:13:14;7.00;;;2.80;;
45366;SDS011;31100;55.848;37.636;2023-05-27T05:15:41;6.13;;;2.38;;
45366;SDS011;31100;55.848;37.636;2023-05-27T05:18:08;4.63;;;2.47;;
45366;SDS011;31100;55.848;37.636;2023-05-27T05:20:35;4.93;;;2.42;;
45366;SDS011;31100;55.848;37.636;2023-05-27T05:23:00;5.05;;;2.33;;
45366;SDS011;31100;55.848;37.636;2023-05-27T05:25:26;6.55;;;2.30;;
45366;SDS011;31100;55.848;37.636;2023-05-27T05:27:52;5.07;;;2.33;;
45366;SDS011;31100;55.848;37.636;2023-05-27T05:30:17;4.70;;;2.17;;
45366;SDS011;31100;55.848;37.636;2023-05-27T05:32:43;4.88;;;2.60;;
45366;SDS011;31100;55.848;37.636;2023-05-27T05:35:08;4.45;;;2.13;;
45366;SDS011;31100;55.848;37.636;2023-05-27T05:37:34;4.72;;;2.78;;
45366;SDS011;31100;55.848;37.636;2023-05-27T05:39:59;8.73;;;2.97;;
45366;SDS011;31100;55.848;37.636;2023-05-27T05:42:25;5.13;;;2.00;;
45366;SDS011;31100;55.848;37.636;2023-05-27T05:44:51;6.22;;;2.42;;
45366;SDS011;31100;55.848;37.636;2023-05-27T05:47:17;4.70;;;2.60;;
45366;SDS011;31100;55.848;37.636;2023-05-27T05:49:43;4.95;;;2.50;;
45366;SDS011;31100;55.848;37.636;2023-05-27T05:52:08;3.92;;;2.55;;
45366;SDS011;31100;55.848;37.636;2023-05-27T05:54:33;4.68;;;2.22;;
45366;SDS011;31100;55.848;37.636;2023-05-27T05:57:00;5.18;;;2.33;;
45366;SDS011;31100;55.848;37.636;2023-05-27T05:59:26;4.97;;;2.63;;
45366;SDS011;31100;55.848;37.636;2023-05-27T06:01:51;9.70;;;3.10;;
45366;SDS011;31100;55.848;37.636;2023-05-27T06:04:17;5.82;;;2.22;;
45366;SDS011;31100;55.848;37.636;2023-05-27T06:06:42;5.93;;;1.98;;
45366;SDS011;31100;55.848;37.636;2023-05-27T06:09:08;5.50;;;2.10;;
45366;SDS011;31100;55.848;37.636;2023-05-27T06:11:33;4.72;;;2.47;;
45366;SDS011;31100;55.848;37.636;2023-05-27T06:13:59;5.60;;;2.38;;
45366;SDS011;31100;55.848;37.636;2023-05-27T06:16:25;3.95;;;2.22;;
45366;SDS011;31100;55.848;37.636;2023-05-27T06:18:51;6.85;;;2.55;;
45366;SDS011;31100;55.848;37.636;2023-05-27T06:21:17;3.28;;;1.95;;
45366;SDS011;31100;55.848;37.636;2023-05-27T06:23:42;5.47;;;2.28;;
45366;SDS011;31100;55.848;37.636;2023-05-27T06:26:08;16.67;;;2.50;;
45366;SDS011;31100;55.848;37.636;2023-05-27T06:28:34;5.60;;;2.60;;
45366;SDS011;31100;55.848;37.636;2023-05-27T06:30:59;6.20;;;2.60;;
45366;SDS011;31100;55.848;37.636;2023-05-27T06:33:25;5.82;;;2.00;;
45366;SDS011;31100;55.848;37.636;2023-05-27T06:35:50;4.80;;;2.50;;
45366;SDS011;31100;55.848;37.636;2023-05-27T06:38:16;6.97;;;2.80;;
45366;SDS011;31100;55.848;37.636;2023-05-27T06:40:41;7.65;;;2.75;;
45366;SDS011;31100;55.848;37.636;2023-05-27T06:43:07;3.80;;;2.00;;
45366;SDS011;31100;55.848;37.636;2023-05-27T06:45:32;6.45;;;2.47;;
45366;SDS011;31100;55.848;37.636;2023-05-27T06:47:58;5.85;;;2.30;;
45366;SDS011;31100;55.848;37.636;2023-05-27T06:50:23;24.05;;;2.63;;
45366;SDS011;31100;55.848;37.636;2023-05-27T06:52:49;5.97;;;2.25;;
45366;SDS011;31100;55.848;37.636;2023-05-27T06:55:14;7.20;;;2.03;;
45366;SDS011;31100;55.848;37.636;2023-05-27T06:57:40;7.32;;;3.20;;
45366;SDS011;31100;55.848;37.636;2023-05-27T07:00:05;6.78;;;2.33;;
45366;SDS011;31100;55.848;37.636;2023-05-27T07:02:33;6.95;;;2.75;;
45366;SDS011;31100;55.848;37.636;2023-05-27T07:04:59;7.18;;;2.10;;
45366;SDS011;31100;55.848;37.636;2023-05-27T07:07:24;7.70;;;2.75;;
45366;SDS011;31100;55.848;37.636;2023-05-27T07:09:50;7.90;;;2.65;;
45366;SDS011;31100;55.848;37.636;2023-05-27T07:12:15;5.75;;;2.28;;
45366;SDS011;31100;55.848;37.636;2023-05-27T07:14:41;7.90;;;2.30;;
45366;SDS011;31100;55.848;37.636;2023-05-27T07:17:07;7.50;;;2.17;;
45366;SDS011;31100;55.848;37.636;2023-05-27T07:19:32;6.30;;;2.08;;
45366;SDS011;31100;55.848;37.636;2023-05-27T07:21:57;6.78;;;2.55;;
45366;SDS011;31100;55.848;37.636;2023-05-27T07:24:23;6.72;;;2.30;;
45366;SDS011;31100;55.848;37.636;2023-05-27T07:26:49;5.53;;;2.13;;
45366;SDS011;31100;55.848;37.636;2023-05-27T07:29:14;7.63;;;2.28;;
45366;SDS011;31100;55.848;37.636;2023-05-27T07:31:40;4.32;;;2.40;;
45366;SDS011;31100;55.848;37.636;2023-05-27T07:34:05;7.68;;;2.13;;
45366;SDS011;31100;55.848;37.636;2023-05-27T07:36:31;7.07;;;2.00;;
45366;SDS011;31100;55.848;37.636;2023-05-27T07:38:56;5.80;;;2.10;;
45366;SDS011;31100;55.848;37.636;2023-05-27T07:41:22;6.25;;;2.15;;
45366;SDS011;31100;55.848;37.636;2023-05-27T07:43:47;6.18;;;2.17;;
45366;SDS011;31100;55.848;37.636;2023-05-27T07:46:13;5.55;;;2.30;;
45366;SDS011;31100;55.848;37.636;2023-05-27T07:48:38;6.40;;;1.80;;
45366;SDS011;31100;55.848;37.636;2023-05-27T07:51:04;4.47;;;2.08;;
45366;SDS011;31100;55.848;37.636;2023-05-27T07:53:29;4.85;;;1.98;;
45366;SDS011;31100;55.848;37.636;2023-05-27T07:55:55;4.10;;;1.90;;
45366;SDS011;31100;55.848;37.636;2023-05-27T07:58:20;4.78;;;2.78;;
45366;SDS011;31100;55.848;37.636;2023-05-27T08:00:46;3.70;;;2.15;;
45366;SDS011;31100;55.848;37.636;2023-05-27T08:03:11;5.78;;;2.92;;
45366;SDS011;31100;55.848;37.636;2023-05-27T08:05:37;6.10;;;2.28;;
45366;SDS011;31100;55.848;37.636;2023-05-27T08:08:02;5.57;;;2.78;;
45366;SDS011;31100;55.848;37.636;2023-05-27T08:10:28;6.85;;;2.10;;
45366;SDS011;31100;55.848;37.636;2023-05-27T08:12:53;5.72;;;2.55;;
45366;SDS011;31100;55.848;37.636;2023-05-27T08:15:19;7.07;;;2.90;;
45366;SDS011;31100;55.848;37.636;2023-05-27T08:17:45;4.93;;;2.33;;
45366;SDS011;31100;55.848;37.636;2023-05-27T08:20:11;9.35;;;2.67;;
45366;SDS011;31100;55.848;37.636;2023-05-27T08:22:37;8.95;;;3.95;;
45366;SDS011;31100;55.848;37.636;2023-05-27T08:25:03;4.88;;;2.55;;
45366;SDS011;31100;55.848;37.636;2023-05-27T08:30:14;8.00;;;2.70;;
45366;SDS011;31100;55.848;37.636;2023-05-27T08:32:40;5.57;;;2.58;;
45366;SDS011;31100;55.848;37.636;2023-05-27T08:35:06;7.70;;;2.90;;
45366;SDS011;31100;55.848;37.636;2023-05-27T08:37:31;5.82;;;2.88;;
45366;SDS011;31100;55.848;37.636;2023-05-27T08:39:57;6.65;;;2.72;;
45366;SDS011;31100;55.848;37.636;2023-05-27T08:42:23;9.18;;;2.90;;
45366;SDS011;31100;55.848;37.636;2023-05-27T08:44:50;5.20;;;2.80;;
45366;SDS011;31100;55.848;37.636;2023-05-27T08:47:16;6.45;;;2.60;;
45366;SDS011;31100;55.848;37.636;2023-05-27T08:49:42;7.03;;;2.83;;
45366;SDS011;31100;55.848;37.636;2023-05-27T08:52:12;4.78;;;2.60;;
45366;SDS011;31100;55.848;37.636;2023-05-27T08:54:39;7.53;;;2.60;;
45366;SDS011;31100;55.848;37.636;2023-05-27T08:57:06;6.85;;;2.83;;
45366;SDS011;31100;55.848;37.636;2023-05-27T08:59:33;5.30;;;2.65;;
45366;SDS011;31100;55.848;37.636;2023-05-27T09:02:00;7.22;;;2.97;;
45366;SDS011;31100;55.848;37.636;2023-05-27T09:04:27;6.35;;;3.17;;
45366;SDS011;31100;55.848;37.636;2023-05-27T09:06:52;7.05;;;2.90;;
45366;SDS011;31100;55.848;37.636;2023-05-27T09:09:18;9.43;;;3.20;;
45366;SDS011;31100;55.848;37.636;2023-05-27T09:11:44;4.35;;;3.10;;
45366;SDS011;31100;55.848;37.636;2023-05-27T09:14:19;7.00;;;3.00;;
45366;SDS011;31100;55.848;37.636;2023-05-27T09:16:47;7.38;;;2.90;;
45366;SDS011;31100;55.848;37.636;2023-05-27T09:19:22;5.55;;;2.85;;
45366;SDS011;31100;55.848;37.636;2023-05-27T09:21:51;6.45;;;3.50;;
45366;SDS011;31100;55.848;37.636;2023-05-27T09:24:17;5.75;;;2.80;;
45366;SDS011;31100;55.848;37.636;2023-05-27T09:26:43;6.57;;;2.85;;
45366;SDS011;31100;55.848;37.636;2023-05-27T09:29:09;7.60;;;3.00;;
45366;SDS011;31100;55.848;37.636;2023-05-27T09:31:38;6.03;;;3.00;;
45366;SDS011;31100;55.848;37.636;2023-05-27T09:34:11;6.57;;;2.70;;
45366;SDS011;31100;55.848;37.636;2023-05-27T09:36:44;7.75;;;2.80;;
45366;SDS011;31100;55.848;37.636;2023-05-27T09:39:11;6.47;;;3.03;;
45366;SDS011;31100;55.848;37.636;2023-05-27T09:41:40;5.65;;;3.00;;
45366;SDS011;31100;55.848;37.636;2023-05-27T09:44:06;7.05;;;2.88;;
45366;SDS011;31100;55.848;37.636;2023-05-27T09:46:33;4.90;;;2.95;;
45366;SDS011;31100;55.848;37.636;2023-05-27T09:48:59;7.57;;;3.00;;
45366;SDS011;31100;55.848;37.636;2023-05-27T09:51:28;7.97;;;3.05;;
45366;SDS011;31100;55.848;37.636;2023-05-27T09:53:54;7.05;;;2.50;;
45366;SDS011;31100;55.848;37.636;2023-05-27T09:56:23;6.28;;;2.80;;
45366;SDS011;31100;55.848;37.636;2023-05-27T09:58:49;6.18;;;2.80;;
45366;SDS011;31100;55.848;37.636;2023-05-27T10:01:15;4.53;;;2.35;;
45366;SDS011;31100;55.848;37.636;2023-05-27T10:03:42;7.13;;;3.10;;
45366;SDS011;31100;55.848;37.636;2023-05-27T10:06:09;4.57;;;2.60;;
45366;SDS011;31100;55.848;37.636;2023-05-27T10:08:38;6.05;;;2.70;;
45366;SDS011;31100;55.848;37.636;2023-05-27T10:11:03;5.82;;;2.97;;
45366;SDS011;31100;55.848;37.636;2023-05-27T10:13:29;5.43;;;2.90;;
45366;SDS011;31100;55.848;37.636;2023-05-27T10:15:55;8.18;;;2.75;;
45366;SDS011;31100;55.848;37.636;2023-05-27T10:18:27;4.65;;;2.53;;
45366;SDS011;31100;55.848;37.636;2023-05-27T10:20:56;6.05;;;2.60;;
45366;SDS011;31100;55.848;37.636;2023-05-27T10:23:24;7.10;;;2.55;;
45366;SDS011;31100;55.848;37.636;2023-05-27T10:25:51;5.35;;;2.38;;
45366;SDS011;31100;55.848;37.636;2023-05-27T10:28:30;5.28;;;2.80;;
45366;SDS011;31100;55.848;37.636;2023-05-27T10:33:43;6.65;;;3.22;;
45366;SDS011;31100;55.848;37.636;2023-05-27T10:36:11;4.25;;;2.85;;
45366;SDS011;31100;55.848;37.636;2023-05-27T10:38:40;4.25;;;2.35;;
45366;SDS011;31100;55.848;37.636;2023-05-27T10:41:07;4.93;;;2.63;;
45366;SDS011;31100;55.848;37.636;2023-05-27T10:43:33;7.20;;;2.90;;
45366;SDS011;31100;55.848;37.636;2023-05-27T10:46:03;6.82;;;2.50;;
45366;SDS011;31100;55.848;37.636;2023-05-27T10:48:32;4.45;;;2.63;;
45366;SDS011;31100;55.848;37.636;2023-05-27T10:50:59;5.47;;;2.40;;
45366;SDS011;31100;55.848;37.636;2023-05-27T10:53:27;4.95;;;2.60;;
45366;SDS011;31100;55.848;37.636;2023-05-27T10:55:56;6.72;;;2.63;;
45366;SDS011;31100;55.848;37.636;2023-05-27T10:58:23;5.85;;;2.80;;
45366;SDS011;31100;55.848;37.636;2023-05-27T11:00:49;6.25;;;2.70;;
45366;SDS011;31100;55.848;37.636;2023-05-27T11:03:19;5.07;;;2.70;;
45366;SDS011;31100;55.848;37.636;2023-05-27T11:06:01;5.68;;;2.60;;
45366;SDS011;31100;55.848;37.636;2023-05-27T11:08:31;5.00;;;2.72;;
45366;SDS011;31100;55.848;37.636;2023-05-27T11:11:06;6.13;;;2.60;;
45366;SDS011;31100;55.848;37.636;2023-05-27T11:13:38;7.28;;;2.17;;
45366;SDS011;31100;55.848;37.636;2023-05-27T11:16:05;6.63;;;2.40;;
45366;SDS011;31100;55.848;37.636;2023-05-27T11:18:35;6.60;;;2.40;;
45366;SDS011;31100;55.848;37.636;2023-05-27T11:21:01;4.35;;;2.20;;
45366;SDS011;31100;55.848;37.636;2023-05-27T11:23:48;6.60;;;2.35;;
45366;SDS011;31100;55.848;37.636;2023-05-27T11:26:17;8.25;;;2.70;;
45366;SDS011;31100;55.848;37.636;2023-05-27T11:28:50;5.53;;;2.45;;
45366;SDS011;31100;55.848;37.636;2023-05-27T11:31:19;5.20;;;2.30;;
45366;SDS011;31100;55.848;37.636;2023-05-27T11:33:46;5.15;;;2.30;;
45366;SDS011;31100;55.848;37.636;2023-05-27T11:36:14;4.93;;;2.35;;
45366;SDS011;31100;55.848;37.636;2023-05-27T11:38:50;4.47;;;2.10;;
45366;SDS011;31100;55.848;37.636;2023-05-27T11:41:18;5.13;;;2.25;;
45366;SDS011;31100;55.848;37.636;2023-05-27T11:43:57;5.32;;;2.53;;
45366;SDS011;31100;55.848;37.636;2023-05-27T11:46:24;4.65;;;2.42;;
45366;SDS011;31100;55.848;37.636;2023-05-27T11:49:02;6.72;;;2.35;;
45366;SDS011;31100;55.848;37.636;2023-05-27T11:51:29;4.78;;;2.30;;
45366;SDS011;31100;55.848;37.636;2023-05-27T11:53:55;4.43;;;2.33;;
45366;SDS011;31100;55.848;37.636;2023-05-27T11:56:21;9.55;;;2.53;;
45366;SDS011;31100;55.848;37.636;2023-05-27T11:58:46;4.53;;;2.20;;
45366;SDS011;31100;55.848;37.636;2023-05-27T12:01:12;5.00;;;2.20;;
45366;SDS011;31100;55.848;37.636;2023-05-27T12:03:38;6.57;;;2.13;;
45366;SDS011;31100;55.848;37.636;2023-05-27T12:06:03;5.25;;;2.22;;
45366;SDS011;31100;55.848;37.636;2023-05-27T12:08:29;3.63;;;2.00;;
45366;SDS011;31100;55.848;37.636;2023-05-27T12:10:54;4.60;;;2.10;;
45366;SDS011;31100;55.848;37.636;2023-05-27T12:13:20;5.38;;;2.00;;
45366;SDS011;31100;55.848;37.636;2023-05-27T12:15:46;6.40;;;2.60;;
45366;SDS011;31100;55.848;37.636;2023-05-27T12:18:12;3.85;;;2.20;;
45366;SDS011;31100;55.848;37.636;2023-05-27T12:20:39;5.00;;;2.03;;
45366;SDS011;31100;55.848;37.636;2023-05-27T12:23:06;14.75;;;2.40;;
45366;SDS011;31100;55.848;37.636;2023-05-27T12:25:33;5.68;;;2.10;;
45366;SDS011;31100;55.848;37.636;2023-05-27T12:27:58;5.65;;;2.17;;
45366;SDS011;31100;55.848;37.636;2023-05-27T12:30:23;5.18;;;1.98;;
45366;SDS011;31100;55.848;37.636;2023-05-27T12:32:49;6.25;;;2.13;;
45366;SDS011;31100;55.848;37.636;2023-05-27T12:35:15;4.78;;;2.05;;
45366;SDS011;31100;55.848;37.636;2023-05-27T12:37:40;3.35;;;2.20;;
45366;SDS011;31100;55.848;37.636;2023-05-27T12:40:06;4.50;;;1.85;;
45366;SDS011;31100;55.848;37.636;2023-05-27T12:42:34;5.18;;;2.28;;
45366;SDS011;31100;55.848;37.636;2023-05-27T12:45:00;7.50;;;2.20;;
45366;SDS011;31100;55.848;37.636;2023-05-27T12:47:26;4.15;;;2.00;;
45366;SDS011;31100;55.848;37.636;2023-05-27T12:49:51;4.95;;;2.15;;
45366;SDS011;31100;55.848;37.636;2023-05-27T12:52:17;5.13;;;2.20;;
45366;SDS011;31100;55.848;37.636;2023-05-27T12:54:42;6.07;;;2.30;;
45366;SDS011;31100;55.848;37.636;2023-05-27T12:57:08;6.68;;;2.42;;
45366;SDS011;31100;55.848;37.636;2023-05-27T12:59:33;5.72;;;1.90;;
45366;SDS011;31100;55.848;37.636;2023-05-27T13:02:00;5.47;;;2.20;;
45366;SDS011;31100;55.848;37.636;2023-05-27T13:04:25;6.50;;;2.33;;
45366;SDS011;31100;55.848;37.636;2023-05-27T13:06:51;6.55;;;2.00;;
45366;SDS011;31100;55.848;37.636;2023-05-27T13:09:16;4.13;;;1.90;;
45366;SDS011;31100;55.848;37.636;2023-05-27T13:11:43;4.53;;;2.50;;
45366;SDS011;31100;55.848;37.636;2023-05-27T13:14:09;5.13;;;2.45;;
45366;SDS011;31100;55.848;37.636;2023-05-27T13:16:34;6.65;;;2.67;;
45366;SDS011;31100;55.848;37.636;2023-05-27T13:19:01;4.65;;;2.60;;
45366;SDS011;31100;55.848;37.636;2023-05-27T13:21:27;5.93;;;2.10;;
45366;SDS011;31100;55.848;37.636;2023-05-27T13:23:53;5.03;;;1.98;;
45366;SDS011;31100;55.848;37.636;2023-05-27T13:26:19;4.93;;;2.00;;
45366;SDS011;31100;55.848;37.636;2023-05-27T13:28:45;6.80;;;2.10;;
45366;SDS011;31100;55.848;37.636;2023-05-27T13:31:11;7.35;;;2.00;;
45366;SDS011;31100;55.848;37.636;2023-05-27T13:33:37;6.25;;;2.75;;
45366;SDS011;31100;55.848;37.636;2023-05-27T13:36:03;6.03;;;2.05;;
45366;SDS011;31100;55.848;37.636;2023-05-27T13:38:29;6.03;;;2.25;;
45366;SDS011;31100;55.848;37.636;2023-05-27T13:40:54;3.83;;;1.92;;
45366;SDS011;31100;55.848;37.636;2023-05-27T13:43:20;6.28;;;2.25;;
45366;SDS011;31100;55.848;37.636;2023-05-27T13:45:46;5.60;;;2.10;;
45366;SDS011;31100;55.848;37.636;2023-05-27T13:48:11;7.28;;;2.35;;
45366;SDS011;31100;55.848;37.636;2023-05-27T13:50:37;4.97;;;2.60;;
45366;SDS011;31100;55.848;37.636;2023-05-27T13:53:02;5.32;;;2.20;;
45366;SDS011;31100;55.848;37.636;2023-05-27T13:55:28;7.07;;;2.08;;
45366;SDS011;31100;55.848;37.636;2023-05-27T13:57:53;4.72;;;2.42;;
45366;SDS011;31100;55.848;37.636;2023-05-27T14:00:19;4.80;;;2.05;;
45366;SDS011;31100;55.848;37.636;2023-05-27T14:02:48;4.35;;;2.10;;
45366;SDS011;31100;55.848;37.636;2023-05-27T14:05:16;5.40;;;2.00;;
45366;SDS011;31100;55.848;37.636;2023-05-27T14:07:42;7.57;;;2.30;;
45366;SDS011;31100;55.848;37.636;2023-05-27T14:10:09;5.93;;;1.80;;
45366;SDS011;31100;55.848;37.636;2023-05-27T14:12:35;6.05;;;2.10;;
45366;SDS011;31100;55.848;37.636;2023-05-27T14:15:01;5.20;;;1.80;;
45366;SDS011;31100;55.848;37.636;2023-05-27T14:17:26;5.07;;;2.35;;
45366;SDS011;31100;55.848;37.636;2023-05-27T14:19:52;6.43;;;2.00;;
45366;SDS011;31100;55.848;37.636;2023-05-27T14:22:17;5.20;;;2.22;;
45366;SDS011;31100;55.848;37.636;2023-05-27T14:24:43;4.85;;;2.20;;
45366;SDS011;31100;55.848;37.636;2023-05-27T14:27:08;5.97;;;1.90;;
45366;SDS011;31100;55.848;37.636;2023-05-27T14:29:34;5.40;;;2.08;;
45366;SDS011;31100;55.848;37.636;2023-05-27T14:31:59;4.20;;;1.92;;
45366;SDS011;31100;55.848;37.636;2023-05-27T14:34:25;6.80;;;2.13;;
45366;SDS011;31100;55.848;37.636;2023-05-27T14:36:50;5.97;;;2.38;;
45366;SDS011;31100;55.848;37.636;2023-05-27T14:39:16;8.70;;;2.53;;
45366;SDS011;31100;55.848;37.636;2023-05-27T14:41:42;4.72;;;2.30;;